createdAt,value
2023-04-15T00:01:12.118Z,15.25
2023-04-15T00:03:39.864Z,8.07
2023-04-15T00:06:15.344Z,13.98
2023-04-15T00:08:42.636Z,15.40
2023-04-15T00:11:09.779Z,11.70
2023-04-15T00:13:37.885Z,12.43
2023-04-15T00:16:06.466Z,13.88
2023-04-15T00:18:34.006Z,13.20
2023-04-15T00:21:01.242Z,11.27
2023-04-15T00:23:29.165Z,15.30
2023-04-15T00:25:56.623Z,17.17
2023-04-15T00:28:24.210Z,15.38
2023-04-15T00:30:53.661Z,13.18
2023-04-15T00:33:20.965Z,14.40
2023-04-15T00:35:47.896Z,7.78
2023-04-15T00:38:15.196Z,7.93
2023-04-15T00:40:42.649Z,10.60
2023-04-15T00:43:10.286Z,11.68
2023-04-15T00:45:37.491Z,9.07
2023-04-15T00:48:05.770Z,7.82
2023-04-15T00:50:33.807Z,11.48
2023-04-15T00:53:01.426Z,11.02
2023-04-15T00:55:28.527Z,8.90
2023-04-15T00:57:57.620Z,9.52
2023-04-15T01:00:25.010Z,6.95
2023-04-15T01:02:52.491Z,7.88
2023-04-15T01:05:20.065Z,8.70
2023-04-15T01:07:48.342Z,9.00
2023-04-15T01:10:15.448Z,5.30
2023-04-15T01:12:43.436Z,7.18
2023-04-15T01:15:11.263Z,4.75
2023-04-15T01:17:39.800Z,6.22
2023-04-15T01:20:10.199Z,10.43
2023-04-15T01:22:38.464Z,18.35
2023-04-15T01:25:18.034Z,10.55
2023-04-15T01:27:45.739Z,10.93
2023-04-15T01:30:12.800Z,12.13
2023-04-15T01:32:40.284Z,10.60
2023-04-15T01:35:07.877Z,10.45
2023-04-15T01:37:36.013Z,12.25
2023-04-15T01:40:03.754Z,6.60
2023-04-15T01:42:32.777Z,15.02
2023-04-15T01:44:59.884Z,6.47
2023-04-15T01:47:27.242Z,7.32
2023-04-15T01:49:54.289Z,7.93
2023-04-15T01:52:21.586Z,9.10
2023-04-15T01:54:48.638Z,7.40
2023-04-15T01:57:17.457Z,7.97
2023-04-15T01:59:44.748Z,10.88
2023-04-15T02:02:12.986Z,8.32
2023-04-15T02:04:40.219Z,7.20
2023-04-15T02:07:08.817Z,9.77
2023-04-15T02:09:35.810Z,9.88
2023-04-15T02:12:03.297Z,7.47
2023-04-15T02:14:30.535Z,9.75
2023-04-15T02:16:58.035Z,11.05
2023-04-15T02:19:25.373Z,11.18
2023-04-15T02:21:52.665Z,8.63
2023-04-15T02:24:19.589Z,11.77
2023-04-15T02:26:46.926Z,10.25
2023-04-15T02:29:13.916Z,10.15
2023-04-15T02:31:42.420Z,8.73
2023-04-15T02:34:09.552Z,14.88
2023-04-15T02:36:37.237Z,10.48
2023-04-15T02:39:04.499Z,11.95
2023-04-15T02:41:31.854Z,11.30
2023-04-15T02:43:58.808Z,10.88
2023-04-15T02:46:27.717Z,11.52
2023-04-15T02:48:54.797Z,9.00
2023-04-15T02:51:26.561Z,10.60
2023-04-15T02:53:53.724Z,6.45
2023-04-15T02:56:24.367Z,10.15
2023-04-15T02:58:51.505Z,7.25
2023-04-15T03:01:21.527Z,7.30
2023-04-15T03:03:48.722Z,8.30
2023-04-15T03:06:16.598Z,5.20
2023-04-15T03:08:43.716Z,8.25
2023-04-15T03:11:11.349Z,6.50
2023-04-15T03:13:39.631Z,12.30
2023-04-15T03:16:07.595Z,7.15
2023-04-15T03:18:34.831Z,5.22
2023-04-15T03:21:03.031Z,8.38
2023-04-15T03:23:31.705Z,7.90
2023-04-15T03:26:02.668Z,9.13
2023-04-15T03:28:31.309Z,12.30
2023-04-15T03:30:59.687Z,7.00
2023-04-15T03:33:26.744Z,6.53
2023-04-15T03:35:54.060Z,10.45
2023-04-15T03:38:21.149Z,11.07
2023-04-15T03:40:49.543Z,8.63
2023-04-15T03:43:16.748Z,9.77
2023-04-15T03:45:44.054Z,14.18
2023-04-15T03:48:17.893Z,9.93
2023-04-15T03:50:46.747Z,10.25
2023-04-15T03:53:13.971Z,13.32
2023-04-15T03:55:41.344Z,11.48
2023-04-15T03:58:08.317Z,8.15
2023-04-15T04:00:35.652Z,12.38
2023-04-15T04:03:03.596Z,8.65
2023-04-15T04:05:32.972Z,9.82
2023-04-15T04:08:00.070Z,12.73
2023-04-15T04:10:28.538Z,10.27
2023-04-15T04:12:55.474Z,12.20
2023-04-15T04:15:22.803Z,11.82
2023-04-15T04:17:49.992Z,13.63
2023-04-15T04:20:17.435Z,13.63
2023-04-15T04:22:44.649Z,11.45
2023-04-15T04:25:11.996Z,10.32
2023-04-15T04:27:39.152Z,16.42
2023-04-15T04:30:07.409Z,17.02
2023-04-15T04:32:34.448Z,19.10
2023-04-15T04:35:02.414Z,21.25
2023-04-15T04:37:29.776Z,17.15
2023-04-15T04:39:57.092Z,14.18
2023-04-15T04:42:24.133Z,18.73
2023-04-15T04:44:51.803Z,12.27
2023-04-15T04:47:18.757Z,13.68
2023-04-15T04:49:46.206Z,15.40
2023-04-15T04:52:13.290Z,13.00
2023-04-15T04:54:40.623Z,13.40
2023-04-15T04:57:08.212Z,16.30
2023-04-15T04:59:36.001Z,18.08
2023-04-15T05:02:04.203Z,15.20
2023-04-15T05:04:32.975Z,18.10
2023-04-15T05:07:02.384Z,17.30
2023-04-15T05:09:32.528Z,13.07
2023-04-15T05:12:02.601Z,14.95
2023-04-15T05:14:30.276Z,15.73
2023-04-15T05:16:57.245Z,16.15
2023-04-15T05:19:25.154Z,16.95
2023-04-15T05:21:52.720Z,19.92
2023-04-15T05:24:20.065Z,15.80
2023-04-15T05:26:47.427Z,14.13
2023-04-15T05:29:14.862Z,15.80
2023-04-15T05:31:42.343Z,16.27
2023-04-15T05:34:11.885Z,15.43
2023-04-15T05:36:39.025Z,16.00
2023-04-15T05:39:07.248Z,20.25
2023-04-15T05:41:35.898Z,16.35
2023-04-15T05:44:03.296Z,13.80
2023-04-15T05:46:30.794Z,21.42
2023-04-15T05:48:58.707Z,17.35
2023-04-15T05:51:26.559Z,18.30
2023-04-15T05:53:54.018Z,21.55
2023-04-15T05:56:20.993Z,20.15
2023-04-15T05:58:48.394Z,21.45
2023-04-15T06:01:15.632Z,12.07
2023-04-15T06:03:44.171Z,19.90
2023-04-15T06:06:11.276Z,22.63
2023-04-15T06:08:38.890Z,21.60
2023-04-15T06:11:06.248Z,18.98
2023-04-15T06:13:34.103Z,14.50
2023-04-15T06:16:01.211Z,25.95
2023-04-15T06:18:28.691Z,20.88
2023-04-15T06:20:55.760Z,18.35
2023-04-15T06:23:23.158Z,14.55
2023-04-15T06:25:50.351Z,16.83
2023-04-15T06:28:17.805Z,14.32
2023-04-15T06:30:45.765Z,15.23
2023-04-15T06:33:13.748Z,14.98
2023-04-15T06:35:41.196Z,11.63
2023-04-15T06:38:08.665Z,16.85
2023-04-15T06:40:35.717Z,17.58
2023-04-15T06:43:03.103Z,14.82
2023-04-15T06:45:30.311Z,15.73
2023-04-15T06:47:57.655Z,10.32
2023-04-15T06:50:24.876Z,11.85
2023-04-15T06:52:53.719Z,14.32
2023-04-15T06:55:23.611Z,13.55
2023-04-15T06:57:50.921Z,10.77
2023-04-15T07:00:18.498Z,11.40
2023-04-15T07:02:47.029Z,13.05
2023-04-15T07:05:14.638Z,12.10
2023-04-15T07:07:42.376Z,13.45
2023-04-15T07:10:10.110Z,16.13
2023-04-15T07:12:37.975Z,16.85
2023-04-15T07:15:05.837Z,15.07
2023-04-15T07:17:34.895Z,18.70
2023-04-15T07:20:03.104Z,17.75
2023-04-15T07:22:30.487Z,13.13
2023-04-15T07:24:57.492Z,11.82
2023-04-15T07:27:25.003Z,12.70
2023-04-15T07:29:52.452Z,12.55
2023-04-15T07:32:20.824Z,13.85
2023-04-15T07:34:48.266Z,17.17
2023-04-15T07:37:15.912Z,14.27
2023-04-15T07:39:42.902Z,12.88
2023-04-15T07:42:10.759Z,16.83
2023-04-15T07:44:38.057Z,12.40
2023-04-15T07:47:07.103Z,18.05
2023-04-15T07:49:36.672Z,14.77
2023-04-15T07:52:05.245Z,12.77
2023-04-15T07:54:32.472Z,14.73
2023-04-15T07:56:59.912Z,12.40
2023-04-15T07:59:30.299Z,10.90
2023-04-15T08:01:59.619Z,11.82
2023-04-15T08:06:58.218Z,10.75
2023-04-15T08:09:25.307Z,8.98
2023-04-15T08:11:53.578Z,11.95
2023-04-15T08:14:24.247Z,12.00
2023-04-15T08:16:52.500Z,14.65
2023-04-15T08:19:19.848Z,15.75
2023-04-15T08:21:47.872Z,17.85
2023-04-15T08:24:15.740Z,14.07
2023-04-15T08:26:44.321Z,19.10
2023-04-15T08:29:12.169Z,10.32
2023-04-15T08:31:39.709Z,10.13
2023-04-15T08:34:08.665Z,10.82
2023-04-15T08:36:36.973Z,16.50
2023-04-15T08:39:05.133Z,15.55
2023-04-15T08:41:59.392Z,16.52
2023-04-15T08:44:28.743Z,10.63
2023-04-15T08:47:02.896Z,16.90
2023-04-15T08:52:13.337Z,15.00
2023-04-15T08:54:41.501Z,12.43
2023-04-15T08:57:09.471Z,17.23
2023-04-15T08:59:37.315Z,10.80
2023-04-15T09:02:11.116Z,12.27
2023-04-15T09:04:38.274Z,11.20
2023-04-15T09:07:06.586Z,12.50
2023-04-15T09:09:37.568Z,11.13
2023-04-15T09:12:04.896Z,14.15
2023-04-15T09:14:32.914Z,14.13
2023-04-15T09:17:02.652Z,16.10
2023-04-15T09:19:31.108Z,10.43
2023-04-15T09:21:59.718Z,17.55
2023-04-15T09:24:39.344Z,16.20
2023-04-15T09:27:08.474Z,13.40
2023-04-15T09:29:35.422Z,20.40
2023-04-15T09:32:19.105Z,19.98
2023-04-15T09:34:47.169Z,10.32
2023-04-15T09:37:32.279Z,21.25
2023-04-15T09:39:59.786Z,19.75
2023-04-15T09:42:28.397Z,16.80
2023-04-15T09:44:55.440Z,15.23
2023-04-15T09:47:32.546Z,13.35
2023-04-15T09:50:01.097Z,20.00
2023-04-15T09:52:29.078Z,19.52
2023-04-15T09:54:59.316Z,15.23
2023-04-15T09:57:34.641Z,14.07
2023-04-15T10:00:01.648Z,22.98
2023-04-15T10:02:35.199Z,20.10
2023-04-15T10:05:03.280Z,24.20
2023-04-15T10:07:35.147Z,22.73
2023-04-15T10:10:06.102Z,25.95
2023-04-15T10:12:34.439Z,27.05
2023-04-15T10:15:05.487Z,21.80
2023-04-15T10:17:35.931Z,20.40
2023-04-15T10:20:05.427Z,20.23
2023-04-15T10:22:33.349Z,23.30
2023-04-15T10:25:01.280Z,24.08
2023-04-15T10:27:29.416Z,22.88
2023-04-15T10:29:57.465Z,26.45
2023-04-15T10:32:25.803Z,24.75
2023-04-15T10:34:54.977Z,24.42
2023-04-15T10:37:33.686Z,21.23
2023-04-15T10:40:00.769Z,20.20
2023-04-15T10:42:36.229Z,22.45
2023-04-15T10:45:17.058Z,27.95
2023-04-15T10:47:51.685Z,22.90
2023-04-15T10:50:19.360Z,25.95
2023-04-15T10:52:49.440Z,22.80
2023-04-15T10:55:21.578Z,24.42
2023-04-15T10:57:58.662Z,27.52
2023-04-15T11:00:27.416Z,24.40
2023-04-15T11:03:12.240Z,22.45
2023-04-15T11:05:42.652Z,22.30
2023-04-15T11:08:12.279Z,23.52
2023-04-15T11:13:11.740Z,31.73
2023-04-15T11:15:47.193Z,22.58
2023-04-15T11:18:17.223Z,31.65
2023-04-15T11:20:50.724Z,31.00
2023-04-15T11:23:20.787Z,38.00
2023-04-15T11:25:49.180Z,37.22
2023-04-15T11:28:20.473Z,34.05
2023-04-15T11:30:48.391Z,30.52
2023-04-15T11:33:15.659Z,29.00
2023-04-15T11:35:45.567Z,26.92
2023-04-15T11:38:14.475Z,30.80
2023-04-15T11:40:44.559Z,33.35
2023-04-15T11:43:22.159Z,20.02
2023-04-15T11:45:53.401Z,20.95
2023-04-15T11:48:34.077Z,31.83
2023-04-15T11:51:03.077Z,28.98
2023-04-15T11:53:49.158Z,34.40
2023-04-15T11:56:24.406Z,32.80
2023-04-15T11:59:00.196Z,26.13
2023-04-15T12:01:39.026Z,27.58
2023-04-15T12:04:17.857Z,26.10
2023-04-15T12:06:45.874Z,26.30
2023-04-15T12:09:14.435Z,34.30
2023-04-15T12:11:59.772Z,22.48
2023-04-15T12:14:32.428Z,25.65
2023-04-15T12:17:05.093Z,28.83
2023-04-15T12:19:37.626Z,25.17
2023-04-15T12:22:13.904Z,30.00
2023-04-15T12:24:48.480Z,24.38
2023-04-15T12:27:16.722Z,29.67
2023-04-15T12:29:45.916Z,19.63
2023-04-15T12:32:15.228Z,24.08
2023-04-15T12:34:49.683Z,14.73
2023-04-15T12:37:20.110Z,17.00
2023-04-15T12:39:50.336Z,15.50
2023-04-15T12:42:18.496Z,16.83
2023-04-15T12:44:47.203Z,17.13
2023-04-15T12:47:15.570Z,14.80
2023-04-15T12:49:42.987Z,12.45
2023-04-15T12:52:10.079Z,11.05
2023-04-15T12:54:37.623Z,7.90
2023-04-15T12:57:07.191Z,9.23
2023-04-15T12:59:36.653Z,6.18
2023-04-15T13:02:04.322Z,12.00
2023-04-15T13:07:00.133Z,10.18
2023-04-15T13:09:27.616Z,12.70
2023-04-15T13:11:57.822Z,13.00
2023-04-15T13:14:25.834Z,14.25
2023-04-15T13:16:54.327Z,18.33
2023-04-15T13:21:49.350Z,12.95
2023-04-15T13:24:16.670Z,9.40
2023-04-15T13:26:44.270Z,5.75
2023-04-15T13:29:12.522Z,9.80
2023-04-15T13:31:40.050Z,11.55
2023-04-15T13:34:10.473Z,10.98
2023-04-15T13:36:37.600Z,6.85
2023-04-15T13:39:06.149Z,9.15
2023-04-15T13:41:38.377Z,6.88
2023-04-15T13:44:06.481Z,6.93
2023-04-15T13:46:34.155Z,9.43
2023-04-15T13:49:01.974Z,8.05
2023-04-15T13:51:29.401Z,7.78
2023-04-15T13:53:59.491Z,6.45
2023-04-15T13:56:26.772Z,7.28
2023-04-15T13:59:00.377Z,6.93
2023-04-15T14:01:27.532Z,8.23
2023-04-15T14:03:55.641Z,5.53
2023-04-15T14:06:23.161Z,6.30
2023-04-15T14:08:50.617Z,5.43
2023-04-15T14:11:17.600Z,7.25
2023-04-15T14:13:44.975Z,5.88
2023-04-15T14:16:12.090Z,5.93
2023-04-15T14:18:40.518Z,4.18
2023-04-15T14:21:07.621Z,5.30
2023-04-15T14:23:35.666Z,6.00
2023-04-15T14:26:02.695Z,2.47
2023-04-15T14:28:30.250Z,3.47
2023-04-15T14:30:58.301Z,3.83
2023-04-15T14:33:25.713Z,4.38
2023-04-15T14:35:52.855Z,3.13
2023-04-15T14:38:22.653Z,2.90
2023-04-15T14:40:49.748Z,3.13
2023-04-15T14:43:17.282Z,2.67
2023-04-15T14:45:45.409Z,5.00
2023-04-15T14:48:13.634Z,3.38
2023-04-15T14:50:40.838Z,3.58
2023-04-15T14:53:08.266Z,5.65
2023-04-15T14:55:35.274Z,2.30
2023-04-15T14:58:05.008Z,4.55
2023-04-15T15:00:32.417Z,3.80
2023-04-15T15:03:00.213Z,1.77
2023-04-15T15:05:31.587Z,5.32
2023-04-15T15:08:00.313Z,3.05
2023-04-15T15:10:32.766Z,1.58
2023-04-15T15:13:16.754Z,5.72
2023-04-15T15:15:44.193Z,1.83
2023-04-15T15:18:15.058Z,2.30
2023-04-15T15:20:45.926Z,1.92
2023-04-15T15:23:13.351Z,1.80
2023-04-15T15:25:40.678Z,3.50
2023-04-15T15:28:08.577Z,1.52
2023-04-15T15:30:41.741Z,6.03
2023-04-15T15:33:09.118Z,1.92
2023-04-15T15:35:36.418Z,2.00
2023-04-15T15:38:06.437Z,4.47
2023-04-15T15:40:33.768Z,3.58
2023-04-15T15:43:01.346Z,3.08
2023-04-15T15:45:30.875Z,1.90
2023-04-15T15:47:59.441Z,1.27
2023-04-15T15:50:27.010Z,1.88
2023-04-15T15:52:56.324Z,6.47
2023-04-15T15:55:25.502Z,2.10
2023-04-15T15:57:54.499Z,1.08
2023-04-15T16:00:23.282Z,1.10
2023-04-15T16:03:05.930Z,2.83
2023-04-15T16:05:34.722Z,4.00
2023-04-15T16:08:02.545Z,1.65
2023-04-15T16:10:30.586Z,1.00
2023-04-15T16:12:58.066Z,3.67
2023-04-15T16:15:25.804Z,5.10
2023-04-15T16:17:53.309Z,3.67
2023-04-15T16:20:20.501Z,2.53
2023-04-15T16:22:47.956Z,3.28
2023-04-15T16:25:14.914Z,2.80
2023-04-15T16:27:54.665Z,5.22
2023-04-15T16:30:24.717Z,4.53
2023-04-15T16:32:54.300Z,4.72
2023-04-15T16:35:21.398Z,1.95
2023-04-15T16:37:49.010Z,2.75
2023-04-15T16:40:16.585Z,2.55
2023-04-15T16:42:44.369Z,6.82
2023-04-15T16:45:12.194Z,5.22
2023-04-15T16:47:40.707Z,5.93
2023-04-15T16:50:09.848Z,4.70
2023-04-15T16:52:37.201Z,4.93
2023-04-15T16:55:05.256Z,4.05
2023-04-15T16:58:00.346Z,3.03
2023-04-15T17:00:20.346Z,4.68
2023-04-15T17:02:47.879Z,7.95
2023-04-15T17:05:15.112Z,8.52
2023-04-15T17:07:42.567Z,4.72
2023-04-15T17:10:09.729Z,6.82
2023-04-15T17:12:37.150Z,7.45
2023-04-15T17:15:09.188Z,8.05
2023-04-15T17:17:37.918Z,5.07
2023-04-15T17:20:05.580Z,5.97
2023-04-15T17:22:34.967Z,4.80
2023-04-15T17:25:03.277Z,6.78
2023-04-15T17:27:33.631Z,5.80
2023-04-15T17:30:01.063Z,11.77
2023-04-15T17:32:32.107Z,7.05
2023-04-15T17:35:01.371Z,5.53
2023-04-15T17:37:36.819Z,7.70
2023-04-15T17:40:08.011Z,8.65
2023-04-15T17:42:38.427Z,10.80
2023-04-15T17:45:05.956Z,8.18
2023-04-15T17:47:33.545Z,8.68
2023-04-15T17:53:03.948Z,6.80
2023-04-15T17:55:32.853Z,7.20
2023-04-15T17:58:00.949Z,7.78
2023-04-15T18:00:28.676Z,5.20
2023-04-15T18:02:59.565Z,8.60
2023-04-15T18:05:26.893Z,6.70
2023-04-15T18:07:54.581Z,9.95
2023-04-15T18:10:21.994Z,8.55
2023-04-15T18:12:49.843Z,9.23
2023-04-15T18:15:18.153Z,6.88
2023-04-15T18:17:46.431Z,13.45
2023-04-15T18:20:15.372Z,15.57
2023-04-15T18:22:43.751Z,11.63
2023-04-15T18:25:11.012Z,10.70
2023-04-15T18:27:41.442Z,15.43
2023-04-15T18:30:10.898Z,14.05
2023-04-15T18:32:41.324Z,14.43
2023-04-15T18:35:09.106Z,19.75
2023-04-15T18:37:36.510Z,16.40
2023-04-15T18:40:04.025Z,16.50
2023-04-15T18:42:31.448Z,17.85
2023-04-15T18:44:58.727Z,22.27
2023-04-15T18:47:27.724Z,22.35
2023-04-15T18:49:55.197Z,20.58
2023-04-15T18:52:24.188Z,18.05
2023-04-15T18:54:52.342Z,15.43
2023-04-15T18:57:37.847Z,22.65
2023-04-15T19:00:08.253Z,24.02
2023-04-15T19:05:04.358Z,13.82
2023-04-15T19:07:33.951Z,18.13
2023-04-15T19:10:03.729Z,19.30
2023-04-15T19:12:30.871Z,25.02
2023-04-15T19:15:01.467Z,19.70
2023-04-15T19:17:28.615Z,22.75
2023-04-15T19:19:56.277Z,18.08
2023-04-15T19:22:24.847Z,15.38
2023-04-15T19:24:52.834Z,17.00
2023-04-15T19:27:21.804Z,14.70
2023-04-15T19:29:49.519Z,21.67
2023-04-15T19:32:18.512Z,19.58
2023-04-15T19:34:46.050Z,20.08
2023-04-15T19:37:13.310Z,29.00
2023-04-15T19:39:42.312Z,26.30
2023-04-15T19:42:09.306Z,27.23
2023-04-15T19:44:38.072Z,29.38
2023-04-15T19:47:05.621Z,28.55
2023-04-15T19:49:33.577Z,28.92
2023-04-15T19:52:01.486Z,22.63
2023-04-15T19:54:29.328Z,28.95
2023-04-15T19:57:04.576Z,24.58
2023-04-15T19:59:33.333Z,23.05
2023-04-15T20:02:03.344Z,24.95
2023-04-15T20:04:31.495Z,24.70
2023-04-15T20:06:58.617Z,19.45
2023-04-15T20:09:26.284Z,26.30
2023-04-15T20:12:09.484Z,24.38
2023-04-15T20:14:40.692Z,20.58
2023-04-15T20:17:10.431Z,26.20
2023-04-15T20:19:37.867Z,27.15
2023-04-15T20:22:06.177Z,23.42
2023-04-15T20:24:33.758Z,21.65
2023-04-15T20:27:00.826Z,23.58
2023-04-15T20:29:28.176Z,23.02
2023-04-15T20:31:56.137Z,22.65
2023-04-15T20:34:23.513Z,24.85
2023-04-15T20:36:50.906Z,25.30
2023-04-15T20:39:18.185Z,18.67
2023-04-15T20:41:45.266Z,20.70
2023-04-15T20:44:12.627Z,20.55
2023-04-15T20:46:39.650Z,20.90
2023-04-15T20:49:07.236Z,28.05
2023-04-15T20:51:37.820Z,27.77
2023-04-15T20:54:06.511Z,24.08
2023-04-15T20:56:33.991Z,25.48
2023-04-15T20:59:01.846Z,29.02
2023-04-15T21:01:30.524Z,30.80
2023-04-15T21:03:59.112Z,25.80
2023-04-15T21:06:27.290Z,31.52
2023-04-15T21:08:54.691Z,26.52
2023-04-15T21:11:40.621Z,32.97
2023-04-15T21:14:09.282Z,31.88
2023-04-15T21:16:36.379Z,28.42
2023-04-15T21:19:04.043Z,29.15
2023-04-15T21:21:32.103Z,27.63
2023-04-15T21:23:59.835Z,27.25
2023-04-15T21:26:26.868Z,46.28
2023-04-15T21:28:54.771Z,26.63
2023-04-15T21:31:23.569Z,26.08
2023-04-15T21:33:51.370Z,33.85
2023-04-15T21:36:19.935Z,30.02
2023-04-15T21:38:47.402Z,22.55
2023-04-15T21:41:14.566Z,26.75
2023-04-15T21:43:42.143Z,23.05
2023-04-15T21:46:22.778Z,26.88
2023-04-15T21:48:55.767Z,22.40
2023-04-15T21:51:23.111Z,31.45
2023-04-15T21:53:50.551Z,21.15
2023-04-15T21:56:17.522Z,24.38
2023-04-15T21:58:44.847Z,27.60
2023-04-15T22:01:11.896Z,21.25
2023-04-15T22:03:39.645Z,23.13
2023-04-15T22:06:07.155Z,20.77
2023-04-15T22:08:41.769Z,22.05
2023-04-15T22:11:30.030Z,32.10
2023-04-15T22:13:58.722Z,28.38
2023-04-15T22:16:26.647Z,26.85
2023-04-15T22:18:55.031Z,27.98
2023-04-15T22:21:22.596Z,33.13
2023-04-15T22:23:49.976Z,26.08
2023-04-15T22:26:17.670Z,25.05
2023-04-15T22:28:45.581Z,24.17
2023-04-15T22:31:13.788Z,29.05
2023-04-15T22:33:42.302Z,30.00
2023-04-15T22:36:09.567Z,30.83
2023-04-15T22:38:37.005Z,28.70
2023-04-15T22:41:04.045Z,23.05
2023-04-15T22:43:31.510Z,32.25
2023-04-15T22:45:58.600Z,27.90
2023-04-15T22:48:26.325Z,24.98
2023-04-15T22:50:53.723Z,25.08
2023-04-15T22:53:21.318Z,25.88
2023-04-15T22:55:48.772Z,25.65
2023-04-15T22:58:17.191Z,24.80
2023-04-15T23:00:44.843Z,26.48
2023-04-15T23:03:12.457Z,27.23
2023-04-15T23:05:41.423Z,22.83
2023-04-15T23:08:09.079Z,25.95
2023-04-15T23:10:37.063Z,25.63
2023-04-15T23:13:04.476Z,27.05
2023-04-15T23:15:31.830Z,19.95
2023-04-15T23:18:00.587Z,20.17
2023-04-15T23:20:27.660Z,24.45
2023-04-15T23:22:54.961Z,17.90
2023-04-15T23:25:22.820Z,25.90
2023-04-15T23:27:50.329Z,23.15
2023-04-15T23:30:17.374Z,10.52
2023-04-15T23:32:44.823Z,25.95
2023-04-15T23:35:12.114Z,26.70
2023-04-15T23:37:39.569Z,31.00
2023-04-15T23:40:07.241Z,19.90
2023-04-15T23:42:34.559Z,28.15
2023-04-15T23:45:01.758Z,27.20
2023-04-15T23:47:29.137Z,31.60
2023-04-15T23:49:56.539Z,27.60
2023-04-15T23:52:24.157Z,26.25
2023-04-15T23:54:51.266Z,24.27
2023-04-15T23:57:19.850Z,18.48
2023-04-15T23:59:46.805Z,35.25
